Vandalia, Illinois
Current Conditions -  °F | °C
As of 9:35 AM on Friday 24 Oct 2014 (Local Time) from KSLO Reporting Station
Overcast Overcast  
Wind Chill: 58°   Ceiling: 800
Heat Index: 58°   Visibility: 10mi
Dew Point: 53°   Wind: 0mph
Humidity: 83%   Direction: NA
Pressure: 30.12"   Gusts: NA
Location:  38.96°N, 89.1°W
Report Text: KSLO 241435Z AUTO 00000KT 10SM OVC008 15/12 A3012 RMK AO2 T01460117
Loading
Personal Weather Stations






























Interactive Weather Map
Tropical Storm Tracking
New forecast layout! Learn more

10-Day Weather Forecast

Advertisements
Track Severe Weather on mobile